Time;durP1;ratioP1;P1;durP2;ratioP2;P2;SDS_P1;SDS_P2;PMS_P1;PMS_P2;Temp;Humidity;BMP_temperature;BMP_pressure;BME280_temperature;BME280_humidity;BME280_pressure;Samples;Min_cycle;Max_cycle;Signal;HPM_P1;HPM_P2
2022/04/03 00:02:16;;;;;;;5.95;2.83;;;;;;;9.78;100.00;99344.62;1752032;80;21500;-81
2022/04/03 00:04:43;;;;;;;7.55;2.80;;;;;;;9.77;100.00;99348.95;1749768;80;20988;-80
2022/04/03 00:07:10;;;;;;;4.95;2.70;;;;;;;9.77;100.00;99343.57;1753124;80;21425;-81
2022/04/03 00:09:36;;;;;;;6.37;2.72;;;;;;;9.77;100.00;99342.23;1753606;80;21974;-81
2022/04/03 00:12:03;;;;;;;5.75;2.77;;;;;;;9.77;100.00;99343.02;1755111;80;21010;-81
2022/04/03 00:14:29;;;;;;;6.67;3.30;;;;;;;9.76;100.00;99344.13;1751224;80;21029;-81
2022/04/03 00:16:56;;;;;;;4.80;2.77;;;;;;;9.76;100.00;99348.16;1751802;80;21031;-81
2022/04/03 00:19:22;;;;;;;8.18;3.50;;;;;;;9.79;100.00;99349.45;1747394;80;21590;-81
2022/04/03 00:21:49;;;;;;;5.90;2.60;;;;;;;9.80;100.00;99352.42;1751806;80;21043;-81
2022/04/03 00:24:17;;;;;;;6.85;3.12;;;;;;;9.85;100.00;99346.16;1750582;80;21097;-80
2022/04/03 00:26:43;;;;;;;5.22;2.47;;;;;;;9.82;100.00;99334.08;1751550;80;21527;-80
2022/04/03 00:29:09;;;;;;;4.03;2.42;;;;;;;9.82;100.00;99338.12;1753443;80;21582;-81
2022/04/03 00:31:36;;;;;;;4.05;2.47;;;;;;;9.80;100.00;99334.13;1751562;80;21263;-80
2022/04/03 00:34:02;;;;;;;5.40;2.77;;;;;;;9.77;100.00;99345.72;1735226;81;21090;-80
2022/04/03 00:36:28;;;;;;;5.28;2.60;;;;;;;9.73;100.00;99346.01;1758853;80;21140;-81
2022/04/03 00:38:54;;;;;;;5.03;2.67;;;;;;;9.74;100.00;99353.56;1753452;80;21118;-81
2022/04/03 00:41:22;;;;;;;7.00;3.37;;;;;;;9.74;100.00;99353.02;1738632;80;21003;-81
2022/04/03 00:43:48;;;;;;;5.30;2.67;;;;;;;9.74;100.00;99351.67;1699988;82;21005;-80
2022/04/03 00:46:19;;;;;;;6.75;2.98;;;;;;;9.73;100.00;99354.08;1689268;83;21155;-80
2022/04/03 00:48:47;;;;;;;6.10;3.15;;;;;;;9.72;100.00;99373.20;1706794;82;21044;-80
2022/04/03 00:51:13;;;;;;;6.08;3.08;;;;;;;9.68;100.00;99371.64;1710977;82;21430;-81
2022/04/03 00:53:39;;;;;;;6.62;2.83;;;;;;;9.66;100.00;99361.70;1713799;82;21474;-80
2022/04/03 00:56:07;;;;;;;6.08;2.98;;;;;;;9.67;100.00;99355.77;1718429;82;21572;-81
2022/04/03 00:58:36;;;;;;;7.12;3.40;;;;;;;9.65;100.00;99357.41;1709023;83;21320;-80
2022/04/03 01:01:02;;;;;;;6.45;4.08;;;;;;;9.61;100.00;99366.31;1701453;83;21099;-80
2022/04/03 01:03:29;;;;;;;7.80;4.10;;;;;;;9.57;100.00;99384.12;1700859;83;21095;-80
2022/04/03 01:05:56;;;;;;;6.65;3.55;;;;;;;9.49;100.00;99383.63;1738654;80;21073;-80
2022/04/03 01:08:26;;;;;;;11.55;4.83;;;;;;;9.46;100.00;99388.23;1745004;80;21171;-81
2022/04/03 01:10:52;;;;;;;10.80;4.05;;;;;;;9.43;100.00;99382.06;1742336;80;21236;-80
2022/04/03 01:13:18;;;;;;;6.08;3.55;;;;;;;9.45;100.00;99377.77;1746808;80;20991;-80
2022/04/03 01:15:59;;;;;;;5.75;3.50;;;;;;;9.44;100.00;99388.24;1751702;80;21039;-81
2022/04/03 01:18:26;;;;;;;6.15;3.55;;;;;;;9.40;100.00;99401.45;1752912;80;21018;-80
2022/04/03 01:20:53;;;;;;;6.55;3.90;;;;;;;9.36;100.00;99387.53;1749867;80;21105;-81
2022/04/03 01:23:22;;;;;;;7.00;3.70;;;;;;;9.34;100.00;99386.45;1752727;80;21151;-81
2022/04/03 01:25:48;;;;;;;8.50;3.80;;;;;;;9.33;100.00;99382.97;1742070;80;20975;-81
2022/04/03 01:28:15;;;;;;;7.08;3.65;;;;;;;9.34;100.00;99370.31;1752163;80;21491;-80
2022/04/03 01:30:41;;;;;;;8.45;4.08;;;;;;;9.33;100.00;99366.03;1685460;83;21018;-80
2022/04/03 01:33:07;;;;;;;9.50;4.33;;;;;;;9.31;100.00;99380.30;1694788;82;21020;-81
2022/04/03 01:35:34;;;;;;;9.48;4.03;;;;;;;9.30;100.00;99379.49;1700088;83;21993;-80
2022/04/03 01:38:00;;;;;;;7.80;3.92;;;;;;;9.28;100.00;99378.17;1704533;83;21553;-81
2022/04/03 01:40:26;;;;;;;9.00;4.30;;;;;;;9.27;100.00;99378.71;1692185;83;21223;-80
2022/04/03 01:42:52;;;;;;;8.95;4.12;;;;;;;9.31;100.00;99379.74;1683901;83;21083;-81
2022/04/03 01:45:21;;;;;;;7.25;4.05;;;;;;;9.33;100.00;99381.62;1707306;83;21082;-80
2022/04/03 01:47:47;;;;;;;8.05;4.28;;;;;;;9.35;100.00;99376.49;1718448;82;21521;-81
2022/04/03 01:50:14;;;;;;;7.53;3.98;;;;;;;9.34;100.00;99373.01;1723649;82;21026;-80
2022/04/03 01:52:40;;;;;;;9.13;4.05;;;;;;;9.36;100.00;99368.70;1707235;82;21222;-80
2022/04/03 01:55:07;;;;;;;7.37;3.72;;;;;;;9.36;100.00;99357.41;1701128;83;21600;-81
2022/04/03 01:57:34;;;;;;;6.87;3.52;;;;;;;9.32;100.00;99358.52;1716225;82;21028;-81
2022/04/03 02:00:00;;;;;;;6.10;3.20;;;;;;;9.30;100.00;99368.74;1724667;82;21109;-81
2022/04/03 02:02:26;;;;;;;7.00;3.60;;;;;;;9.32;100.00;99373.82;1720590;82;20967;-80
2022/04/03 02:04:52;;;;;;;9.28;4.15;;;;;;;9.33;100.00;99368.73;1686590;82;21597;-81
2022/04/03 02:07:19;;;;;;;6.95;3.65;;;;;;;9.33;100.00;99370.06;1703114;82;20971;-80
2022/04/03 02:09:45;;;;;;;7.58;3.55;;;;;;;9.33;100.00;99374.90;1709445;81;21004;-80
2022/04/03 02:12:12;;;;;;;9.18;3.50;;;;;;;9.30;100.00;99373.32;1698368;83;21076;-80
2022/04/03 02:14:38;;;;;;;7.67;3.80;;;;;;;9.28;100.00;99380.31;1701562;81;21085;-80
2022/04/03 02:17:05;;;;;;;8.35;3.77;;;;;;;9.30;100.00;99383.52;1716058;82;21080;-80
2022/04/03 02:19:31;;;;;;;6.10;3.62;;;;;;;9.30;100.00;99386.77;1702150;81;21131;-80
2022/04/03 02:21:57;;;;;;;5.90;3.27;;;;;;;9.31;100.00;99385.67;1694490;82;21091;-80
2022/04/03 02:24:24;;;;;;;7.08;3.65;;;;;;;9.28;100.00;99383.00;1694066;82;21071;-80
2022/04/03 02:26:51;;;;;;;7.97;3.40;;;;;;;9.28;100.00;99388.92;1700322;82;21019;-80
2022/04/03 02:29:17;;;;;;;5.75;3.20;;;;;;;9.30;100.00;99383.52;1697238;83;21227;-80
2022/04/03 02:31:43;;;;;;;6.85;3.20;;;;;;;9.33;100.00;99391.58;1691989;82;21055;-80
2022/04/03 02:34:10;;;;;;;5.60;3.00;;;;;;;9.31;100.00;99392.39;1692231;82;21135;-81
2022/04/03 02:36:40;;;;;;;6.78;3.27;;;;;;;9.29;100.00;99398.58;1748775;80;21531;-80
2022/04/03 02:39:04;;;;;;;7.30;2.98;;;;;;;9.28;100.00;99390.27;1749614;80;21032;-80
2022/04/03 02:41:30;;;;;;;6.10;2.77;;;;;;;9.28;100.00;99386.23;1757589;80;21050;-80
2022/04/03 02:43:57;;;;;;;5.47;2.92;;;;;;;9.30;100.00;99389.45;1750675;80;20949;-81
2022/04/03 02:46:23;;;;;;;5.67;2.55;;;;;;;9.31;100.00;99388.36;1750831;80;21429;-80
2022/04/03 02:48:49;;;;;;;4.40;2.33;;;;;;;9.28;100.00;99392.95;1750692;80;21401;-80
2022/04/03 02:51:15;;;;;;;5.67;2.30;;;;;;;9.22;100.00;99394.08;1750239;80;21208;-80
2022/04/03 02:53:42;;;;;;;5.33;2.80;;;;;;;9.16;100.00;99402.72;1752136;80;21066;-80
2022/04/03 02:56:08;;;;;;;4.05;2.50;;;;;;;9.15;100.00;99407.84;1754730;80;21105;-81
2022/04/03 02:58:34;;;;;;;5.08;2.45;;;;;;;9.15;100.00;99409.19;1754241;80;21081;-80
2022/04/03 03:01:01;;;;;;;6.03;2.87;;;;;;;9.14;100.00;99418.31;1753131;80;21065;-81
2022/04/03 03:03:27;;;;;;;5.37;1.95;;;;;;;9.17;100.00;99416.95;1751036;80;21003;-80
2022/04/03 03:05:54;;;;;;;5.42;2.27;;;;;;;9.15;100.00;99414.56;1752022;80;21021;-80
2022/04/03 03:08:20;;;;;;;4.15;1.98;;;;;;;9.17;100.00;99408.89;1751291;80;21275;-80
2022/04/03 03:10:46;;;;;;;4.17;1.98;;;;;;;9.16;100.00;99391.16;1751269;80;21186;-80
2022/04/03 03:13:13;;;;;;;3.90;2.00;;;;;;;9.15;100.00;99387.68;1754198;80;21854;-81
2022/04/03 03:15:39;;;;;;;5.35;2.02;;;;;;;9.15;100.00;99384.16;1745476;80;21089;-80
2022/04/03 03:18:05;;;;;;;4.72;2.27;;;;;;;9.16;100.00;99388.48;1728079;81;21006;-81
2022/04/03 03:20:32;;;;;;;4.97;2.47;;;;;;;9.14;100.00;99398.16;1751377;80;21007;-81
2022/04/03 03:23:00;;;;;;;4.25;2.12;;;;;;;9.12;100.00;99407.05;1751133;80;21064;-80
2022/04/03 03:25:27;;;;;;;4.62;2.10;;;;;;;9.11;100.00;99405.43;1727429;81;21580;-80
2022/04/03 03:27:54;;;;;;;6.25;2.25;;;;;;;9.10;100.00;99411.89;1749991;80;20952;-81
2022/04/03 03:30:21;;;;;;;5.08;1.92;;;;;;;9.10;100.00;99415.38;1750288;80;21079;-81
2022/04/03 03:32:47;;;;;;;3.45;1.95;;;;;;;9.08;100.00;99417.53;1751903;80;21118;-80
2022/04/03 03:35:13;;;;;;;4.53;2.42;;;;;;;9.05;100.00;99425.36;1752770;80;21147;-80
2022/04/03 03:37:40;;;;;;;4.20;2.05;;;;;;;9.05;100.00;99424.02;1744978;80;21160;-81
2022/04/03 03:40:11;;;;;;;3.65;2.22;;;;;;;9.07;100.00;99415.14;1748871;80;21003;-80
2022/04/03 03:42:35;;;;;;;4.67;2.17;;;;;;;9.09;100.00;99409.75;1746178;80;21081;-80
2022/04/03 03:45:02;;;;;;;3.65;2.10;;;;;;;9.12;100.00;99414.29;1694125;82;21084;-80
2022/04/03 03:47:28;;;;;;;3.62;2.08;;;;;;;9.14;100.00;99405.42;1683939;82;21545;-80
2022/04/03 03:49:54;;;;;;;4.65;2.02;;;;;;;9.15;100.00;99399.78;1682846;84;21618;-80
2022/04/03 03:52:21;;;;;;;3.40;1.80;;;;;;;9.17;100.00;99400.83;1695540;83;21045;-80
2022/04/03 03:54:47;;;;;;;4.85;2.20;;;;;;;9.19;100.00;99399.47;1700218;82;21026;-80
2022/04/03 03:57:13;;;;;;;3.90;2.17;;;;;;;9.22;100.00;99402.94;1698124;82;21087;-80
2022/04/03 03:59:39;;;;;;;5.30;2.62;;;;;;;9.25;100.00;99402.38;1670145;83;21008;-80
2022/04/03 04:02:06;;;;;;;5.30;2.20;;;;;;;9.30;100.00;99398.86;1703686;83;21017;-80
2022/04/03 04:04:34;;;;;;;5.10;2.35;;;;;;;9.33;100.00;99403.12;1699494;82;21080;-81
2022/04/03 04:07:00;;;;;;;5.15;2.50;;;;;;;9.36;100.00;99402.31;1694430;83;21093;-81
2022/04/03 04:09:26;;;;;;;4.45;2.40;;;;;;;9.39;100.00;99402.55;1684506;83;21141;-81
2022/04/03 04:11:52;;;;;;;5.37;2.12;;;;;;;9.43;100.00;99402.23;1682451;84;21241;-81
2022/04/03 04:14:19;;;;;;;6.10;2.42;;;;;;;9.46;100.00;99400.33;1687967;83;21112;-81
2022/04/03 04:16:46;;;;;;;3.67;2.08;;;;;;;9.45;100.00;99394.70;1687159;83;21040;-81
2022/04/03 04:19:14;;;;;;;7.40;2.37;;;;;;;9.48;100.00;99399.52;1682784;82;21238;-81
2022/04/03 04:21:42;;;;;;;4.50;2.10;;;;;;;9.52;100.00;99399.20;1692560;82;21120;-81
2022/04/03 04:24:08;;;;;;;8.23;2.87;;;;;;;9.60;100.00;99401.83;1693708;83;21078;-81
2022/04/03 04:26:34;;;;;;;7.53;2.70;;;;;;;9.63;100.00;99397.23;1688120;83;21775;-82
2022/04/03 04:29:01;;;;;;;4.55;2.33;;;;;;;9.72;100.00;99402.80;1682325;83;21512;-82
2022/04/03 04:31:27;;;;;;;6.67;2.87;;;;;;;9.77;100.00;99397.38;1674547;83;21105;-82
2022/04/03 04:33:53;;;;;;;5.78;2.83;;;;;;;9.83;100.00;99396.80;1681853;84;21052;-82
2022/04/03 04:36:19;;;;;;;9.05;3.15;;;;;;;9.91;100.00;99400.19;1668345;84;21114;-82
2022/04/03 04:38:47;;;;;;;7.25;2.65;;;;;;;10.03;100.00;99406.52;1678418;84;21116;-79
2022/04/03 04:41:13;;;;;;;7.67;2.90;;;;;;;10.14;100.00;99401.30;1682411;83;21052;-79
2022/04/03 04:43:40;;;;;;;5.47;2.22;;;;;;;10.23;100.00;99399.05;1697086;83;21081;-79
2022/04/03 04:46:06;;;;;;;3.87;2.08;;;;;;;10.36;100.00;99402.97;1690690;83;21156;-80
2022/04/03 04:48:34;;;;;;;5.37;2.85;;;;;;;10.49;100.00;99406.05;1676115;83;21065;-80
2022/04/03 04:51:01;;;;;;;5.90;2.60;;;;;;;10.51;100.00;99398.48;1684112;83;21462;-80
2022/04/03 04:53:27;;;;;;;7.47;3.25;;;;;;;10.52;100.00;99404.12;1692548;83;21005;-80
2022/04/03 04:55:54;;;;;;;5.58;2.95;;;;;;;10.56;100.00;99411.87;1689152;83;22146;-80
2022/04/03 04:58:20;;;;;;;4.83;2.52;;;;;;;10.61;100.00;99416.65;1682779;83;21514;-80
2022/04/03 05:00:47;;;;;;;5.95;3.10;;;;;;;10.57;100.00;99421.57;1685370;83;21012;-81
2022/04/03 05:03:13;;;;;;;10.20;2.67;;;;;;;10.54;100.00;99420.80;1672070;84;21319;-80
2022/04/03 05:05:40;;;;;;;5.58;3.15;;;;;;;10.53;100.00;99415.97;1681942;83;21048;-81
2022/04/03 05:08:07;;;;;;;6.03;2.92;;;;;;;10.57;100.00;99418.88;1674412;83;20977;-80
2022/04/03 05:10:33;;;;;;;7.62;3.27;;;;;;;10.60;100.00;99421.00;1679933;83;21097;-81
2022/04/03 05:13:01;;;;;;;8.93;3.40;;;;;;;10.54;100.00;99420.80;1691367;83;21028;-80
2022/04/03 05:15:30;;;;;;;7.25;3.42;;;;;;;10.53;100.00;99431.30;1690723;83;21117;-80
2022/04/03 05:17:58;;;;;;;5.60;2.98;;;;;;;10.48;100.00;99430.03;1678048;84;21061;-80
2022/04/03 05:20:25;;;;;;;5.75;3.12;;;;;;;10.48;100.00;99432.19;1682180;84;21194;-79
2022/04/03 05:22:51;;;;;;;7.83;3.40;;;;;;;10.52;100.00;99426.47;1676871;83;21491;-80
2022/04/03 05:25:17;;;;;;;6.08;2.83;;;;;;;10.63;100.00;99415.03;1686754;83;21707;-79
2022/04/03 05:27:44;;;;;;;6.67;3.08;;;;;;;10.72;100.00;99413.84;1671289;84;21638;-79
2022/04/03 05:30:13;;;;;;;7.45;3.67;;;;;;;10.85;100.00;99409.06;1685569;83;21505;-80
2022/04/03 05:32:39;;;;;;;8.93;3.27;;;;;;;10.95;100.00;99411.63;1679177;83;21020;-80
2022/04/03 05:35:09;;;;;;;8.68;3.30;;;;;;;11.04;100.00;99421.22;1686404;83;21025;-81
2022/04/03 05:37:37;;;;;;;6.00;3.10;;;;;;;11.16;100.00;99411.34;1693894;83;21707;-80
2022/04/03 05:40:05;;;;;;;7.17;3.08;;;;;;;11.21;100.00;99404.53;1683556;83;21069;-80
2022/04/03 05:42:33;;;;;;;9.40;3.12;;;;;;;11.20;100.00;99410.45;1681836;83;21012;-80
2022/04/03 05:45:00;;;;;;;5.30;2.60;;;;;;;11.24;100.00;99403.39;1689137;83;21107;-79
2022/04/03 05:47:26;;;;;;;6.87;3.37;;;;;;;11.25;100.00;99414.97;1674998;83;21096;-80
2022/04/03 05:49:52;;;;;;;6.95;3.33;;;;;;;11.23;100.00;99417.95;1699203;83;21524;-80
2022/04/03 05:52:19;;;;;;;6.62;3.08;;;;;;;11.21;100.00;99426.90;1699313;83;21552;-80
2022/04/03 05:54:45;;;;;;;8.45;3.40;;;;;;;11.19;100.00;99426.94;1701571;82;20999;-80
2022/04/03 05:57:11;;;;;;;6.92;3.22;;;;;;;11.17;100.00;99426.41;1706457;82;20996;-80
2022/04/03 05:59:37;;;;;;;9.73;3.17;;;;;;;11.16;100.00;99422.92;1696048;83;20970;-80
2022/04/03 06:02:05;;;;;;;7.75;3.95;;;;;;;11.13;100.00;99427.55;1696528;83;21035;-80
2022/04/03 06:04:33;;;;;;;7.83;3.55;;;;;;;11.18;100.00;99428.00;1692898;83;21186;-80
2022/04/03 06:06:59;;;;;;;10.65;3.60;;;;;;;11.09;100.00;99423.30;1695338;83;21074;-79
2022/04/03 06:09:26;;;;;;;8.50;3.33;;;;;;;11.12;100.00;99430.80;1699089;82;21096;-79
2022/04/03 06:11:52;;;;;;;6.55;3.37;;;;;;;11.12;100.00;99422.71;1663090;83;21075;-81
2022/04/03 06:14:18;;;;;;;8.35;3.90;;;;;;;11.18;100.00;99423.96;1737841;80;21059;-79
2022/04/03 06:16:44;;;;;;;6.95;3.98;;;;;;;11.18;100.00;99425.31;1748866;80;21754;-79
2022/04/03 06:19:11;;;;;;;7.20;3.95;;;;;;;11.10;100.00;99427.58;1754112;80;21385;-79
2022/04/03 06:21:38;;;;;;;10.50;4.20;;;;;;;11.02;100.00;99434.97;1746057;80;21109;-79
2022/04/03 06:24:05;;;;;;;10.25;4.20;;;;;;;11.05;100.00;99434.94;1750035;80;21105;-79
2022/04/03 06:26:31;;;;;;;7.33;3.87;;;;;;;11.17;100.00;99435.30;1753972;80;21128;-79
2022/04/03 06:28:57;;;;;;;10.00;4.62;;;;;;;11.25;100.00;99429.25;1752305;80;20987;-79
2022/04/03 06:31:23;;;;;;;7.75;3.80;;;;;;;11.37;100.00;99432.30;1751502;80;21038;-79
2022/04/03 06:33:50;;;;;;;11.30;4.80;;;;;;;11.50;100.00;99423.20;1750404;80;20950;-79
2022/04/03 06:36:16;;;;;;;8.40;4.45;;;;;;;11.72;100.00;99427.98;1752554;80;20970;-79
2022/04/03 06:38:42;;;;;;;9.68;5.00;;;;;;;11.84;100.00;99432.35;1724283;81;21065;-79
2022/04/03 06:41:08;;;;;;;8.28;4.70;;;;;;;11.93;100.00;99436.55;1752896;80;21734;-79
2022/04/03 06:43:35;;;;;;;8.58;4.35;;;;;;;12.07;100.00;99442.78;1750910;80;21047;-79
2022/04/03 06:46:01;;;;;;;9.30;4.75;;;;;;;12.15;100.00;99434.55;1754562;80;21088;-78
2022/04/03 06:48:32;;;;;;;7.92;4.30;;;;;;;12.16;100.00;99425.34;1752842;80;21133;-82
2022/04/03 06:50:58;;;;;;;9.15;4.72;;;;;;;12.23;100.00;99426.52;1686212;82;21050;-82
2022/04/03 06:53:28;;;;;;;9.18;4.87;;;;;;;12.38;100.00;99431.38;1703723;82;21157;-82
2022/04/03 06:55:54;;;;;;;12.37;4.45;;;;;;;12.59;100.00;99434.48;1670795;83;21123;-79
2022/04/03 06:58:21;;;;;;;8.53;4.58;;;;;;;12.63;100.00;99429.53;1675299;83;21243;-79
2022/04/03 07:00:47;;;;;;;9.93;4.67;;;;;;;12.71;100.00;99432.88;1678752;83;21082;-79
2022/04/03 07:03:13;;;;;;;10.98;5.45;;;;;;;12.66;100.00;99428.92;1687105;83;20975;-80
2022/04/03 07:05:39;;;;;;;10.80;4.62;;;;;;;12.64;100.00;99431.68;1704159;82;21791;-81
2022/04/03 07:08:06;;;;;;;8.70;4.78;;;;;;;12.60;100.00;99428.78;1706079;82;21606;-79
2022/04/03 07:10:33;;;;;;;8.65;4.72;;;;;;;12.71;100.00;99431.53;1707435;82;21037;-80
2022/04/03 07:12:59;;;;;;;8.85;4.60;;;;;;;12.70;100.00;99427.77;1689039;82;21155;-80
2022/04/03 07:15:26;;;;;;;7.45;4.50;;;;;;;12.60;100.00;99420.67;1697711;82;21028;-80
2022/04/03 07:17:52;;;;;;;10.08;5.03;;;;;;;12.62;100.00;99419.83;1694870;82;21497;-80
2022/04/03 07:20:19;;;;;;;9.18;5.08;;;;;;;12.77;100.00;99414.66;1695425;82;21023;-80
2022/04/03 07:22:45;;;;;;;9.50;4.47;;;;;;;12.93;100.00;99421.31;1701173;82;21049;-80
2022/04/03 07:25:13;;;;;;;9.93;4.20;;;;;;;13.13;100.00;99424.67;1694572;82;21128;-80
2022/04/03 07:27:41;;;;;;;8.98;5.00;;;;;;;13.07;100.00;99433.45;1700343;82;21622;-80
2022/04/03 07:30:09;;;;;;;10.25;4.83;;;;;;;13.02;100.00;99434.12;1690467;82;21132;-80
2022/04/03 07:32:36;;;;;;;10.43;5.05;;;;;;;12.96;100.00;99432.08;1691620;82;21123;-80
2022/04/03 07:35:03;;;;;;;10.58;4.83;;;;;;;12.75;100.00;99428.22;1700494;82;21240;-80
2022/04/03 07:37:32;;;;;;;11.08;4.72;;;;;;;12.76;100.00;99427.11;1691523;82;21885;-79
2022/04/03 07:39:59;;;;;;;7.25;4.03;;;;;;;12.93;100.00;99428.07;1693638;83;21042;-80
2022/04/03 07:42:25;;;;;;;8.20;4.65;;;;;;;13.10;100.00;99424.73;1740763;80;21826;-80
2022/04/03 07:44:52;;;;;;;10.65;4.62;;;;;;;13.28;100.00;99416.23;1756035;80;21077;-80
2022/04/03 07:47:19;;;;;;;10.08;4.75;;;;;;;13.39;100.00;99410.03;1750265;80;21074;-80
2022/04/03 07:49:45;;;;;;;9.23;4.58;;;;;;;13.55;100.00;99400.98;1744143;80;21039;-80
2022/04/03 07:52:12;;;;;;;9.40;4.70;;;;;;;13.61;100.00;99388.91;1706958;81;21061;-80
2022/04/03 07:54:38;;;;;;;8.05;4.40;;;;;;;13.73;100.00;99390.48;1749806;80;21128;-80
2022/04/03 07:59:35;;;;;;;10.60;5.35;;;;;;;13.99;100.00;99388.47;1697140;82;22141;-79
2022/04/03 08:02:02;;;;;;;12.20;5.65;;;;;;;14.09;100.00;99396.34;1691691;83;21715;-80
2022/04/03 08:04:29;;;;;;;10.00;4.83;;;;;;;14.04;100.00;99399.18;1690917;83;21519;-80
2022/04/03 08:06:55;;;;;;;7.53;4.28;;;;;;;14.02;100.00;99401.39;1687758;83;21499;-80
2022/04/03 08:09:23;;;;;;;12.60;5.30;;;;;;;13.94;100.00;99399.44;1688920;82;21237;-79
2022/04/03 08:11:49;;;;;;;11.08;5.50;;;;;;;14.07;100.00;99395.84;1690274;82;21077;-78
2022/04/03 08:14:16;;;;;;;9.60;4.97;;;;;;;14.24;100.00;99386.99;1682753;83;21084;-80
2022/04/03 08:16:42;;;;;;;14.13;5.12;;;;;;;14.28;100.00;99391.45;1682052;83;21116;-79
2022/04/03 08:19:09;;;;;;;10.70;5.33;;;;;;;14.11;100.00;99398.16;1677183;83;21111;-80
2022/04/03 08:21:35;;;;;;;8.65;5.45;;;;;;;14.04;100.00;99401.33;1681543;82;21117;-79
2022/04/03 08:24:01;;;;;;;12.40;5.70;;;;;;;14.07;100.00;99398.55;1685198;82;21077;-80
2022/04/03 08:26:28;;;;;;;11.03;5.75;;;;;;;14.11;100.00;99396.02;1689776;83;21089;-80
2022/04/03 08:28:54;;;;;;;10.40;6.50;;;;;;;14.28;100.00;99389.30;1690689;83;21563;-80
2022/04/03 08:31:27;;;;;;;13.40;7.50;;;;;;;14.76;100.00;99377.09;1685455;82;21610;-80
2022/04/03 08:33:54;;;;;;;11.63;6.75;;;;;;;15.01;100.00;99362.50;1682993;83;21247;-80
2022/04/03 08:36:20;;;;;;;10.80;6.72;;;;;;;15.09;99.40;99374.45;1688363;82;21061;-79
2022/04/03 08:38:47;;;;;;;13.10;6.92;;;;;;;14.94;96.94;99378.44;1695942;82;21117;-80
2022/04/03 08:41:13;;;;;;;11.00;6.70;;;;;;;14.79;96.47;99387.05;1700795;82;21018;-80
2022/04/03 08:43:42;;;;;;;11.83;6.75;;;;;;;14.65;95.03;99386.64;1685162;82;21120;-80
2022/04/03 08:46:09;;;;;;;14.15;6.95;;;;;;;14.42;93.23;99407.61;1688093;82;21065;-80
2022/04/03 08:48:40;;;;;;;12.53;6.72;;;;;;;14.42;93.23;99407.61;1697614;82;21102;-80
2022/04/03 08:51:07;;;;;;;13.00;6.83;;;;;;;14.05;92.96;99394.00;1684982;83;21019;-80
2022/04/03 08:53:33;;;;;;;14.15;6.60;;;;;;;13.97;94.70;99405.58;1702553;82;21094;-80
2022/04/03 08:56:00;;;;;;;10.25;6.10;;;;;;;13.85;96.80;99398.03;1714305;81;21165;-80
2022/04/03 08:58:27;;;;;;;13.85;6.10;;;;;;;13.76;97.92;99402.61;1753054;80;21617;-80
2022/04/03 09:00:55;;;;;;;12.50;6.12;;;;;;;13.70;99.33;99398.44;1750754;80;21106;-79
2022/04/03 09:05:51;;;;;;;13.28;7.37;;;;;;;13.65;99.23;99388.55;1688049;82;21096;-80
2022/04/03 09:08:19;;;;;;;15.75;8.13;;;;;;;13.58;100.00;99397.09;1691181;82;21245;-80
2022/04/03 09:11:04;;;;;;;13.32;7.65;;;;;;;13.58;100.00;99397.09;1630873;86;21567;-80
2022/04/03 09:13:30;;;;;;;13.83;7.92;;;;;;;13.53;100.00;99399.13;1575534;89;21121;-80
2022/04/03 09:15:58;;;;;;;15.05;8.40;;;;;;;13.55;100.00;99396.36;1580445;89;21145;-80
2022/04/03 09:18:49;;;;;;;17.77;8.20;;;;;;;13.57;100.00;99389.30;1572993;90;21613;-79
2022/04/03 09:21:25;;;;;;;14.43;8.15;;;;;;;13.60;100.00;99390.82;1537866;92;22007;-80
2022/04/03 09:26:39;;;;;;;18.20;8.95;;;;;;;13.60;100.00;99388.67;1587432;89;21019;-79
2022/04/03 09:29:17;;;;;;;17.60;9.03;;;;;;;13.56;100.00;99390.38;1578275;89;21104;-79
2022/04/03 09:31:46;;;;;;;17.73;9.53;;;;;;;13.45;99.86;99389.86;1576287;89;21106;-79
2022/04/03 09:34:33;;;;;;;;;;;;;;;;;;;;;
2022/04/03 09:37:00;;;;;;;17.35;8.88;;;;;;;13.07;100.00;99376.66;1428558;98;21228;-81
2022/04/03 09:39:30;;;;;;;18.10;9.28;;;;;;;13.08;100.00;99375.54;1435935;98;21227;-82
2022/04/03 09:42:05;;;;;;;18.00;9.38;;;;;;;13.02;100.00;99380.83;1387572;101;21739;-79
2022/04/03 09:44:39;;;;;;;21.93;9.73;;;;;;;12.94;100.00;99374.26;1423922;98;21195;-80
2022/04/03 09:47:24;;;;;;;;;;;;;;;12.88;100.00;99379.53;1433260;98;21221;-80
2022/04/03 09:50:00;;;;;;;21.60;9.30;;;;;;;12.77;100.00;99380.86;1434323;98;20214;-79
2022/04/03 09:52:43;;;;;;;25.52;12.10;;;;;;;12.74;100.00;99376.06;1440429;98;21149;-80
2022/04/03 09:55:22;;;;;;;22.95;11.60;;;;;;;12.51;100.00;99383.31;1407396;99;21117;-80
2022/04/03 09:58:05;;;;;;;24.25;10.82;;;;;;;12.22;100.00;99376.31;1400116;101;21683;-79
2022/04/03 10:00:37;;;;;;;21.52;10.48;;;;;;;12.06;100.00;99376.37;1405664;100;21195;-80
2022/04/03 10:03:04;;;;;;;19.95;10.20;;;;;;;12.01;100.00;99367.02;1433351;98;21315;-81
2022/04/03 10:05:33;;;;;;;22.07;10.15;;;;;;;12.00;100.00;99370.27;1442003;98;21677;-80
2022/04/03 10:08:03;;;;;;;21.52;11.30;;;;;;;11.98;100.00;99365.72;1496114;92;21120;-80
2022/04/03 10:10:31;;;;;;;23.35;11.22;;;;;;;11.97;100.00;99364.65;1532421;92;21095;-81
2022/04/03 10:12:58;;;;;;;20.15;11.03;;;;;;;11.98;100.00;99356.81;1530437;92;21105;-81
2022/04/03 10:15:27;;;;;;;25.92;11.75;;;;;;;11.99;100.00;99352.45;1557480;91;21060;-82
2022/04/03 10:17:54;;;;;;;22.52;11.60;;;;;;;12.00;100.00;99355.42;1552558;91;21110;-82
2022/04/03 10:20:28;;;;;;;26.15;11.97;;;;;;;12.08;100.00;99366.61;1557110;91;21123;-82
2022/04/03 10:23:05;;;;;;;20.77;10.82;;;;;;;12.07;100.00;99372.56;1502084;93;21138;-82
2022/04/03 10:25:36;;;;;;;21.42;11.85;;;;;;;12.04;100.00;99375.87;1496041;93;21206;-82
2022/04/03 10:28:06;;;;;;;27.17;12.30;;;;;;;11.95;100.00;99373.06;1444235;97;21128;-81
2022/04/03 10:30:40;;;;;;;25.30;12.40;;;;;;;11.95;100.00;99379.81;1447263;97;21109;-82
2022/04/03 10:33:19;;;;;;;24.65;11.28;;;;;;;11.93;100.00;99386.61;1424405;98;21164;-82
2022/04/03 10:35:51;;;;;;;24.55;11.65;;;;;;;11.81;100.00;99395.95;1456411;96;21218;-82
2022/04/03 10:38:20;;;;;;;24.80;12.00;;;;;;;11.73;100.00;99402.03;1461780;96;21530;-82
2022/04/03 10:40:59;;;;;;;26.42;12.23;;;;;;;11.69;100.00;99406.42;1464947;96;21291;-82
2022/04/03 10:43:31;;;;;;;23.38;11.15;;;;;;;11.65;100.00;99414.05;1445087;97;21554;-82
2022/04/03 10:45:58;;;;;;;26.40;11.43;;;;;;;11.60;100.00;99414.95;1449357;97;21641;-82
2022/04/03 10:48:28;;;;;;;25.55;12.07;;;;;;;11.56;100.00;99411.25;1447960;97;21177;-81
2022/04/03 10:51:15;;;;;;;23.35;11.57;;;;;;;11.51;100.00;99416.73;1447553;97;21349;-82
2022/04/03 10:53:46;;;;;;;22.00;10.58;;;;;;;11.44;100.00;99420.33;1440756;97;21199;-82
2022/04/03 10:56:26;;;;;;;24.87;11.85;;;;;;;11.27;100.00;99418.98;1441525;97;21161;-80
2022/04/03 10:58:55;;;;;;;23.50;11.60;;;;;;;11.12;100.00;99423.27;1444424;98;21168;-82
2022/04/03 11:01:31;;;;;;;26.00;12.00;;;;;;;11.02;100.00;99424.73;1423442;97;21075;-82
2022/04/03 11:04:12;;;;;;;24.90;11.35;;;;;;;10.84;100.00;99422.30;1461323;95;21166;-82
2022/04/03 11:09:14;;;;;;;27.70;12.20;;;;;;;10.54;100.00;99419.45;1429656;98;21175;-83
2022/04/03 11:11:51;;;;;;;23.22;10.75;;;;;;;10.40;100.00;99423.38;1398264;100;21041;-83
2022/04/03 11:14:56;;;;;;;23.30;10.95;;;;;;;10.31;100.00;99420.52;1386046;101;21242;-82
2022/04/03 11:17:52;;;;;;;28.75;14.33;;;;;;;10.24;100.00;99418.15;1387055;100;39309;-81
2022/04/03 11:20:42;;;;;;;28.87;12.60;;;;;;;10.28;100.00;99420.30;1448825;96;21171;-82
2022/04/03 11:23:14;;;;;;;24.07;11.70;;;;;;;10.28;100.00;99414.36;1455460;95;21245;-83
2022/04/03 11:25:42;;;;;;;31.45;12.35;;;;;;;10.25;100.00;99413.56;1461427;96;21149;-83
2022/04/03 11:28:09;;;;;;;25.17;13.00;;;;;;;10.21;100.00;99415.23;1499571;93;21096;-83
2022/04/03 11:30:35;;;;;;;26.55;12.23;;;;;;;10.21;100.00;99409.84;1564565;89;21137;-83
2022/04/03 11:33:03;;;;;;;33.05;13.18;;;;;;;10.17;100.00;99417.67;1561113;88;21112;-82
2022/04/03 11:35:40;;;;;;;29.65;12.73;;;;;;;10.16;100.00;99410.70;1541180;89;21120;-83
2022/04/03 11:38:07;;;;;;;27.10;12.43;;;;;;;10.14;100.00;99411.52;1585118;88;21574;-83
2022/04/03 11:40:35;;;;;;;32.78;13.35;;;;;;;10.12;100.00;99405.63;1554297;90;21548;-82
2022/04/03 11:43:16;;;;;;;31.50;14.10;;;;;;;10.08;100.00;99391.13;1552416;90;21154;-83